createdAt,value
2018-02-10T00:02:22.656Z,-0.30
2018-02-10T00:04:50.241Z,-0.40
2018-02-10T00:07:17.833Z,-0.40
2018-02-10T00:09:45.381Z,-0.40
2018-02-10T00:12:12.978Z,-0.40
2018-02-10T00:14:40.570Z,-0.40
2018-02-10T00:17:08.630Z,-0.40
2018-02-10T00:19:36.581Z,-0.50
2018-02-10T00:22:04.202Z,-0.50
2018-02-10T00:24:31.744Z,-0.50
2018-02-10T00:26:59.369Z,-0.50
2018-02-10T00:29:27.992Z,-0.50
2018-02-10T00:31:55.636Z,-0.50
2018-02-10T00:34:23.615Z,-0.20
2018-02-10T00:36:51.612Z,-0.10
2018-02-10T00:39:19.173Z,-0.10
2018-02-10T00:41:46.777Z,0.10
2018-02-10T00:44:14.389Z,0.20
2018-02-10T00:46:42.058Z,0.30
2018-02-10T00:49:09.610Z,0.40
2018-02-10T00:51:37.180Z,0.50
2018-02-10T00:54:04.755Z,0.60
2018-02-10T00:56:32.405Z,0.70
2018-02-10T00:58:59.989Z,0.80
2018-02-10T01:01:27.589Z,0.80
2018-02-10T01:03:55.136Z,0.80
2018-02-10T01:06:23.137Z,0.80
2018-02-10T01:08:50.703Z,0.80
2018-02-10T01:11:18.313Z,0.80
2018-02-10T01:13:45.917Z,0.80
2018-02-10T01:16:13.527Z,0.80
2018-02-10T01:18:41.082Z,0.90
2018-02-10T01:21:08.662Z,0.90
2018-02-10T01:23:36.970Z,0.90
2018-02-10T01:26:04.640Z,0.90
2018-02-10T01:28:32.248Z,1.00
2018-02-10T01:30:59.792Z,1.00
2018-02-10T01:33:27.399Z,1.00
2018-02-10T01:35:55.009Z,1.00
2018-02-10T01:38:22.564Z,0.90
2018-02-10T01:40:50.152Z,0.90
2018-02-10T01:43:17.751Z,0.90
2018-02-10T01:45:45.301Z,0.90
2018-02-10T01:48:12.907Z,0.90
2018-02-10T01:50:40.436Z,0.90
2018-02-10T01:53:08.005Z,0.80
2018-02-10T01:55:35.620Z,0.80
2018-02-10T01:58:03.209Z,0.80
2018-02-10T02:00:30.815Z,0.90
2018-02-10T02:02:58.412Z,0.80
2018-02-10T02:05:26.352Z,0.90
2018-02-10T02:07:53.911Z,0.90
2018-02-10T02:10:22.300Z,0.90
2018-02-10T02:12:49.992Z,0.90
2018-02-10T02:15:17.644Z,0.90
2018-02-10T02:17:45.622Z,0.90
2018-02-10T02:20:13.582Z,0.90
2018-02-10T02:22:41.191Z,0.90
2018-02-10T02:25:08.768Z,0.90
2018-02-10T02:27:36.360Z,0.90
2018-02-10T02:30:04.353Z,0.90
2018-02-10T02:32:31.935Z,0.90
2018-02-10T02:34:59.572Z,0.90
2018-02-10T02:37:27.124Z,0.90
2018-02-10T02:39:54.720Z,0.90
2018-02-10T02:42:22.309Z,0.90
2018-02-10T02:44:49.897Z,0.90
2018-02-10T02:47:17.428Z,0.80
2018-02-10T02:49:45.009Z,0.80
2018-02-10T02:52:12.984Z,0.80
2018-02-10T02:54:40.566Z,0.80
2018-02-10T02:57:09.036Z,0.80
2018-02-10T02:59:36.623Z,0.80
2018-02-10T03:02:04.205Z,0.80
2018-02-10T03:04:31.842Z,0.80
2018-02-10T03:06:59.461Z,0.80
2018-02-10T03:09:27.083Z,0.80
2018-02-10T03:11:54.628Z,0.80
2018-02-10T03:14:22.231Z,0.80
2018-02-10T03:16:49.773Z,0.80
2018-02-10T03:19:17.374Z,0.80
2018-02-10T03:21:46.279Z,0.90
2018-02-10T03:24:14.179Z,0.90
2018-02-10T03:26:41.740Z,0.90
2018-02-10T03:29:09.314Z,0.90
2018-02-10T03:31:36.880Z,1.00
2018-02-10T03:34:04.422Z,1.00
2018-02-10T03:36:31.990Z,1.10
2018-02-10T03:38:59.541Z,1.10
2018-02-10T03:41:27.152Z,1.10
2018-02-10T03:43:54.708Z,1.10
2018-02-10T03:46:22.265Z,1.10
2018-02-10T03:48:49.898Z,1.10
2018-02-10T03:51:17.564Z,1.10
2018-02-10T03:53:45.741Z,1.10
2018-02-10T03:56:13.325Z,1.10
2018-02-10T03:58:40.889Z,1.10
2018-02-10T04:01:08.439Z,1.10
2018-02-10T04:03:41.157Z,1.20
2018-02-10T04:06:09.201Z,1.20
2018-02-10T04:08:36.784Z,1.10
2018-02-10T04:11:04.392Z,1.10
2018-02-10T04:13:31.949Z,1.10
2018-02-10T04:15:59.892Z,1.10
2018-02-10T04:18:27.879Z,1.10
2018-02-10T04:20:55.466Z,1.10
2018-02-10T04:23:23.460Z,1.10
2018-02-10T04:25:51.040Z,1.10
2018-02-10T04:28:18.631Z,1.10
2018-02-10T04:30:46.217Z,1.10
2018-02-10T04:33:13.780Z,1.10
2018-02-10T04:35:41.349Z,1.10
2018-02-10T04:38:08.940Z,1.10
2018-02-10T04:40:36.488Z,1.10
2018-02-10T04:43:04.118Z,1.10
2018-02-10T04:45:31.665Z,1.00
2018-02-10T04:47:59.248Z,1.00
2018-02-10T04:50:27.759Z,1.00
2018-02-10T04:52:55.724Z,1.00
2018-02-10T04:55:23.262Z,1.00
2018-02-10T04:57:50.814Z,0.90
2018-02-10T05:00:18.360Z,0.90
2018-02-10T05:02:45.934Z,1.00
2018-02-10T05:05:13.518Z,1.00
2018-02-10T05:07:41.100Z,1.00
2018-02-10T05:10:08.654Z,1.00
2018-02-10T05:12:36.248Z,1.00
2018-02-10T05:15:03.803Z,1.00
2018-02-10T05:17:31.768Z,0.90
2018-02-10T05:19:59.341Z,0.90
2018-02-10T05:22:26.932Z,0.80
2018-02-10T05:24:54.623Z,0.80
2018-02-10T05:27:22.182Z,0.80
2018-02-10T05:29:49.718Z,0.80
2018-02-10T05:32:17.324Z,0.80
2018-02-10T05:34:44.889Z,0.80
2018-02-10T05:37:12.476Z,0.90
2018-02-10T05:39:40.010Z,0.90
2018-02-10T05:42:07.612Z,0.90
2018-02-10T05:44:35.179Z,1.00
2018-02-10T05:47:02.705Z,1.00
2018-02-10T05:49:30.650Z,1.00
2018-02-10T05:51:58.224Z,1.10
2018-02-10T05:54:26.181Z,1.10
2018-02-10T05:56:53.766Z,1.10
2018-02-10T05:59:21.711Z,1.10
2018-02-10T06:01:49.280Z,1.10
2018-02-10T06:04:17.315Z,1.10
2018-02-10T06:06:44.855Z,1.10
2018-02-10T06:09:12.412Z,1.10
2018-02-10T06:11:39.974Z,1.10
2018-02-10T06:14:07.535Z,1.00
2018-02-10T06:16:35.104Z,1.00
2018-02-10T06:19:02.643Z,1.10
2018-02-10T06:21:30.195Z,1.00
2018-02-10T06:23:57.733Z,1.00
2018-02-10T06:26:25.690Z,1.00
2018-02-10T06:28:53.225Z,1.00
2018-02-10T06:31:20.786Z,1.00
2018-02-10T06:33:48.363Z,1.00
2018-02-10T06:36:15.946Z,1.00
2018-02-10T06:38:43.519Z,1.00
2018-02-10T06:41:11.049Z,1.00
2018-02-10T06:43:38.688Z,1.00
2018-02-10T06:46:06.270Z,1.10
2018-02-10T06:48:33.797Z,1.10
2018-02-10T06:51:01.797Z,1.10
2018-02-10T06:53:29.757Z,1.10
2018-02-10T06:55:57.616Z,1.10
2018-02-10T06:58:25.177Z,1.10
2018-02-10T07:00:52.766Z,1.10
2018-02-10T07:03:20.317Z,1.10
2018-02-10T07:05:47.926Z,1.10
2018-02-10T07:08:15.468Z,1.10
2018-02-10T07:10:43.048Z,1.10
2018-02-10T07:13:10.601Z,1.20
2018-02-10T07:15:38.192Z,1.20
2018-02-10T07:18:05.754Z,1.20
2018-02-10T07:20:33.350Z,1.30
2018-02-10T07:23:01.633Z,1.30
2018-02-10T07:25:29.248Z,1.40
2018-02-10T07:27:56.801Z,1.40
2018-02-10T07:30:24.381Z,1.40
2018-02-10T07:32:52.158Z,1.50
2018-02-10T07:35:19.811Z,1.50
2018-02-10T07:37:47.897Z,1.60
2018-02-10T07:40:15.853Z,1.60
2018-02-10T07:42:43.840Z,1.70
2018-02-10T07:45:15.125Z,1.60
2018-02-10T07:47:47.746Z,1.70
2018-02-10T07:50:16.604Z,1.70
2018-02-10T07:52:45.462Z,1.70
2018-02-10T07:55:17.388Z,1.80
2018-02-10T07:57:49.811Z,1.90
2018-02-10T08:02:50.501Z,2.10
2018-02-10T08:05:18.494Z,2.20
2018-02-10T08:07:46.111Z,2.20
2018-02-10T08:10:14.153Z,2.30
2018-02-10T08:12:43.031Z,2.30
2018-02-10T08:15:14.290Z,2.40
2018-02-10T08:17:42.224Z,2.40
2018-02-10T08:20:10.522Z,2.40
2018-02-10T08:22:38.179Z,2.40
2018-02-10T08:25:06.117Z,2.40
2018-02-10T08:27:34.453Z,2.40
2018-02-10T08:30:02.024Z,2.30
2018-02-10T08:32:29.604Z,2.40
2018-02-10T08:34:57.326Z,2.40
2018-02-10T08:37:24.873Z,2.40
2018-02-10T08:39:52.424Z,2.40
2018-02-10T08:42:19.998Z,2.40
2018-02-10T08:44:47.560Z,2.50
2018-02-10T08:47:15.093Z,2.50
2018-02-10T08:49:43.075Z,2.60
2018-02-10T08:52:10.654Z,2.60
2018-02-10T08:54:38.211Z,2.60
2018-02-10T08:57:05.773Z,2.60
2018-02-10T08:59:33.331Z,2.70
2018-02-10T09:02:00.931Z,2.80
2018-02-10T09:04:28.508Z,2.90
2018-02-10T09:06:56.065Z,3.00
2018-02-10T09:09:24.006Z,3.10
2018-02-10T09:11:51.577Z,3.10
2018-02-10T09:14:20.167Z,3.10
2018-02-10T09:16:47.804Z,3.10
2018-02-10T09:19:15.412Z,3.10
2018-02-10T09:21:43.014Z,3.00
2018-02-10T09:24:10.567Z,3.00
2018-02-10T09:26:38.218Z,3.00
2018-02-10T09:29:05.787Z,3.10
2018-02-10T09:31:33.621Z,3.20
2018-02-10T09:34:01.586Z,3.30
2018-02-10T09:36:29.581Z,3.30
2018-02-10T09:38:57.108Z,3.30
2018-02-10T09:41:24.716Z,3.40
2018-02-10T09:43:52.281Z,3.30
2018-02-10T09:46:19.963Z,3.40
2018-02-10T09:48:47.565Z,3.40
2018-02-10T09:51:15.522Z,3.40
2018-02-10T09:53:43.478Z,3.50
2018-02-10T09:56:11.060Z,3.50
2018-02-10T09:58:38.676Z,3.60
2018-02-10T10:01:06.207Z,3.70
2018-02-10T10:03:33.786Z,3.70
2018-02-10T10:06:01.324Z,3.80
2018-02-10T10:08:30.714Z,3.80
2018-02-10T10:10:58.290Z,3.70
2018-02-10T10:13:25.813Z,3.70
2018-02-10T10:15:53.381Z,3.70
2018-02-10T10:18:20.952Z,3.80
2018-02-10T10:20:48.520Z,3.90
2018-02-10T10:23:16.101Z,3.90
2018-02-10T10:25:44.605Z,4.00
2018-02-10T10:28:12.186Z,4.10
2018-02-10T10:30:40.130Z,4.20
2018-02-10T10:33:07.712Z,4.20
2018-02-10T10:35:35.649Z,4.20
2018-02-10T10:38:03.201Z,4.20
2018-02-10T10:40:30.836Z,4.30
2018-02-10T10:42:58.387Z,4.20
2018-02-10T10:45:25.930Z,4.20
2018-02-10T10:47:53.478Z,4.20
2018-02-10T10:50:21.487Z,4.20
2018-02-10T11:04:53.130Z,4.10
2018-02-10T11:07:20.684Z,4.10
2018-02-10T11:09:48.252Z,4.30
2018-02-10T11:12:15.805Z,4.50
2018-02-10T11:14:43.429Z,4.60
2018-02-10T11:17:11.606Z,4.80
2018-02-10T11:19:39.183Z,5.00
2018-02-10T11:22:06.775Z,5.20
2018-02-10T11:24:34.316Z,5.60
2018-02-10T11:27:01.866Z,5.90
2018-02-10T11:29:29.419Z,5.90
2018-02-10T11:31:57.052Z,5.60
2018-02-10T11:34:25.014Z,5.40
2018-02-10T11:36:52.581Z,5.30
2018-02-10T11:39:20.531Z,5.20
2018-02-10T11:41:48.085Z,5.20
2018-02-10T11:44:15.690Z,5.20
2018-02-10T11:46:43.309Z,5.30
2018-02-10T11:49:10.901Z,5.30
2018-02-10T11:51:38.877Z,5.20
2018-02-10T11:54:06.422Z,5.20
2018-02-10T11:56:34.455Z,5.00
2018-02-10T11:59:02.753Z,5.00
2018-02-10T12:01:30.306Z,4.90
2018-02-10T12:03:57.926Z,4.70
2018-02-10T12:06:25.513Z,4.60
2018-02-10T12:08:53.154Z,4.60
2018-02-10T12:11:20.818Z,4.60
2018-02-10T12:13:48.358Z,4.60
2018-02-10T12:16:16.031Z,4.60
2018-02-10T12:18:43.585Z,4.50
2018-02-10T12:21:11.202Z,4.40
2018-02-10T12:23:38.840Z,4.30
2018-02-10T12:26:06.554Z,4.20
2018-02-10T12:28:39.450Z,4.20
2018-02-10T12:31:07.067Z,4.30
2018-02-10T12:33:34.620Z,4.30
2018-02-10T12:36:02.223Z,4.20
2018-02-10T12:38:29.781Z,4.10
2018-02-10T12:40:57.381Z,4.10
2018-02-10T12:43:24.968Z,4.10
2018-02-10T12:45:52.548Z,4.10
2018-02-10T12:51:29.973Z,4.00
2018-02-10T12:53:57.562Z,4.00
2018-02-10T12:56:25.305Z,4.00
2018-02-10T12:58:52.971Z,4.00
2018-02-10T13:01:20.640Z,4.00
2018-02-10T13:03:48.206Z,3.90
2018-02-10T13:06:15.831Z,3.90
2018-02-10T13:08:43.394Z,3.90
2018-02-10T13:11:11.340Z,3.90
2018-02-10T13:13:39.346Z,3.90
2018-02-10T13:16:06.915Z,3.90
2018-02-10T13:18:34.469Z,4.00
2018-02-10T13:21:02.096Z,4.00
2018-02-10T13:23:29.697Z,4.10
2018-02-10T13:25:57.301Z,4.10
2018-02-10T13:28:24.877Z,4.30
2018-02-10T13:30:52.901Z,4.30
2018-02-10T13:33:20.455Z,4.30
2018-02-10T13:35:48.021Z,4.30
2018-02-10T13:38:15.603Z,4.30
2018-02-10T13:40:43.208Z,4.40
2018-02-10T13:43:10.805Z,4.50
2018-02-10T13:45:38.356Z,4.50
2018-02-10T13:48:05.988Z,4.60
2018-02-10T13:50:33.504Z,4.70
2018-02-10T13:53:01.089Z,4.80
2018-02-10T13:55:28.629Z,4.90
2018-02-10T13:57:56.264Z,5.00
2018-02-10T14:00:23.773Z,5.10
2018-02-10T14:02:51.333Z,5.20
2018-02-10T14:05:18.938Z,5.20
2018-02-10T14:07:46.527Z,5.10
2018-02-10T14:10:14.100Z,5.10
2018-02-10T14:12:42.081Z,4.90
2018-02-10T14:15:09.674Z,4.90
2018-02-10T14:17:37.267Z,4.80
2018-02-10T14:20:04.917Z,4.70
2018-02-10T14:22:32.493Z,4.60
2018-02-10T14:25:00.044Z,4.60
2018-02-10T14:27:27.637Z,4.60
2018-02-10T14:29:55.897Z,4.50
2018-02-10T14:32:23.856Z,4.40
2018-02-10T14:34:51.421Z,4.40
2018-02-10T14:37:19.029Z,4.40
2018-02-10T14:39:46.616Z,4.40
2018-02-10T14:42:14.182Z,4.30
2018-02-10T14:44:41.800Z,4.30
2018-02-10T14:47:09.351Z,4.30
2018-02-10T14:49:37.031Z,4.20
2018-02-10T14:52:04.602Z,4.20
2018-02-10T14:54:32.197Z,4.30
2018-02-10T14:56:59.760Z,4.20
2018-02-10T14:59:28.355Z,4.20
2018-02-10T15:01:55.948Z,4.20
2018-02-10T15:04:23.566Z,4.20
2018-02-10T15:06:51.135Z,4.10
2018-02-10T15:09:19.160Z,4.10
2018-02-10T15:11:46.717Z,4.10
2018-02-10T15:14:16.837Z,4.20
2018-02-10T15:16:44.389Z,4.10
2018-02-10T15:19:11.972Z,4.10
2018-02-10T15:21:39.646Z,4.10
2018-02-10T15:24:08.520Z,4.00
2018-02-10T15:26:36.212Z,4.00
2018-02-10T15:29:03.815Z,4.00
2018-02-10T15:31:43.383Z,3.90
2018-02-10T15:34:22.882Z,3.90
2018-02-10T15:36:50.450Z,3.80
2018-02-10T15:39:20.581Z,3.80
2018-02-10T15:41:48.173Z,3.80
2018-02-10T15:44:15.747Z,3.80
2018-02-10T15:46:43.337Z,3.80
2018-02-10T15:49:10.891Z,3.80
2018-02-10T15:51:38.510Z,3.80
2018-02-10T15:54:06.082Z,3.80
2018-02-10T15:56:33.649Z,3.80
2018-02-10T15:59:01.224Z,3.70
2018-02-10T16:01:29.219Z,3.70
2018-02-10T16:03:56.789Z,3.70
2018-02-10T16:06:24.361Z,3.60
2018-02-10T16:08:51.982Z,3.60
2018-02-10T16:11:19.537Z,3.60
2018-02-10T16:13:47.101Z,3.60
2018-02-10T16:16:14.666Z,3.50
2018-02-10T16:18:42.287Z,3.50
2018-02-10T16:21:09.879Z,3.50
2018-02-10T16:23:37.825Z,3.50
2018-02-10T16:26:05.369Z,3.50
2018-02-10T16:28:32.957Z,3.40
2018-02-10T16:31:01.447Z,3.40
2018-02-10T16:33:29.022Z,3.40
2018-02-10T16:35:56.609Z,3.30
2018-02-10T16:38:24.197Z,3.30
2018-02-10T16:40:51.788Z,3.30
2018-02-10T16:43:19.329Z,3.30
2018-02-10T16:45:47.468Z,3.20
2018-02-10T16:48:15.049Z,3.20
2018-02-10T16:50:42.614Z,3.10
2018-02-10T16:53:10.559Z,3.10
2018-02-10T16:55:38.120Z,3.10
2018-02-10T16:58:05.682Z,3.00
2018-02-10T17:00:33.249Z,2.90
2018-02-10T17:03:00.832Z,2.90
2018-02-10T17:05:28.804Z,3.00
2018-02-10T17:07:56.363Z,3.00
2018-02-10T17:10:23.918Z,3.00
2018-02-10T17:12:51.874Z,3.00
2018-02-10T17:15:19.884Z,3.00
2018-02-10T17:17:47.439Z,3.00
2018-02-10T17:20:15.013Z,3.00
2018-02-10T17:22:42.594Z,3.00
2018-02-10T17:25:10.179Z,2.90
2018-02-10T17:27:38.149Z,3.00
2018-02-10T17:30:06.111Z,3.00
2018-02-10T17:32:33.733Z,3.00
2018-02-10T18:02:36.088Z,3.10
2018-02-10T18:05:08.725Z,3.10
2018-02-10T18:07:38.613Z,3.00
2018-02-10T18:10:06.343Z,3.10
2018-02-10T18:18:26.309Z,3.10
2018-02-10T18:21:02.933Z,3.10
2018-02-10T18:23:39.225Z,3.10
2018-02-10T18:58:56.768Z,3.20
2018-02-10T19:01:44.861Z,3.10
2018-02-10T19:04:19.884Z,3.20
2018-02-10T19:06:50.713Z,3.20
2018-02-10T19:09:26.306Z,3.30
2018-02-10T19:51:10.251Z,3.20
2018-02-10T19:53:47.560Z,3.10
2018-02-10T19:56:29.906Z,3.20
2018-02-10T19:58:58.796Z,3.20
2018-02-10T20:01:26.541Z,3.10
2018-02-10T20:03:55.620Z,3.10
2018-02-10T20:06:25.049Z,3.20
2018-02-10T20:08:52.813Z,3.20
2018-02-10T20:11:22.098Z,3.10
2018-02-10T20:13:50.222Z,3.10
2018-02-10T20:16:22.928Z,3.10
2018-02-10T20:18:50.954Z,3.20
2018-02-10T20:21:18.629Z,3.20
2018-02-10T20:23:50.688Z,3.20
2018-02-10T20:26:19.685Z,3.20
2018-02-10T20:28:49.491Z,3.10
2018-02-10T20:31:17.095Z,3.10
2018-02-10T20:33:45.105Z,3.10
2018-02-10T20:36:13.533Z,3.10
2018-02-10T20:38:41.556Z,3.10
2018-02-10T20:41:09.127Z,3.10
2018-02-10T20:43:36.814Z,3.10
2018-02-10T20:46:04.846Z,3.10
2018-02-10T20:48:32.493Z,3.20
2018-02-10T20:51:00.163Z,3.20
2018-02-10T20:53:27.765Z,3.20
2018-02-10T20:55:55.463Z,3.20
2018-02-10T20:58:25.661Z,3.30
2018-02-10T21:00:53.669Z,3.20
2018-02-10T21:03:21.246Z,3.20
2018-02-10T21:05:50.285Z,3.20
2018-02-10T21:08:18.430Z,3.10
2018-02-10T21:10:51.862Z,3.10
2018-02-10T21:13:19.878Z,3.10
2018-02-10T21:15:48.259Z,3.10
2018-02-10T21:18:15.999Z,3.10
2018-02-10T21:20:43.625Z,3.10
2018-02-10T21:23:11.191Z,3.10
2018-02-10T21:25:39.260Z,3.10
2018-02-10T21:28:06.996Z,3.10
2018-02-10T21:30:34.612Z,3.10
2018-02-10T21:33:02.500Z,3.10
2018-02-10T21:35:30.106Z,3.10
2018-02-10T21:37:57.749Z,3.10
2018-02-10T21:40:25.892Z,3.10
2018-02-10T21:42:53.560Z,3.10
2018-02-10T21:45:21.145Z,3.10
2018-02-10T21:47:48.774Z,3.10
2018-02-10T21:50:16.337Z,3.10
2018-02-10T21:52:44.074Z,3.10
2018-02-10T21:55:11.681Z,3.10
2018-02-10T21:57:39.241Z,3.20
2018-02-10T22:00:06.966Z,3.20
2018-02-10T22:02:34.565Z,3.20
2018-02-10T22:05:02.108Z,3.20
2018-02-10T22:07:29.863Z,3.20
2018-02-10T22:09:57.532Z,3.10
2018-02-10T22:12:26.214Z,3.10
2018-02-10T22:14:53.781Z,3.10
2018-02-10T22:17:21.369Z,2.90
2018-02-10T22:19:49.319Z,2.80
2018-02-10T22:22:16.900Z,2.80
2018-02-10T22:24:44.456Z,2.70
2018-02-10T22:27:12.055Z,2.70
2018-02-10T22:29:39.669Z,2.80
2018-02-10T22:32:07.328Z,2.70
2018-02-10T22:34:34.971Z,2.70
2018-02-10T22:37:02.566Z,2.70
2018-02-10T22:39:30.242Z,2.70
2018-02-10T22:41:57.876Z,2.60
2018-02-10T22:44:25.405Z,2.60
2018-02-10T22:46:52.988Z,2.60
2018-02-10T22:49:20.572Z,2.60
2018-02-10T22:51:48.209Z,2.50
2018-02-10T22:54:16.567Z,2.50
2018-02-10T22:57:07.553Z,2.40
2018-02-10T22:59:35.248Z,2.40
2018-02-10T23:02:02.892Z,2.30
2018-02-10T23:04:30.514Z,2.30
2018-02-10T23:06:58.519Z,2.20
2018-02-10T23:09:26.262Z,2.20
2018-02-10T23:11:53.882Z,2.20
2018-02-10T23:14:21.583Z,2.20
2018-02-10T23:16:49.204Z,2.20
2018-02-10T23:19:16.922Z,2.20
2018-02-10T23:21:44.511Z,2.20
2018-02-10T23:24:12.139Z,2.10
2018-02-10T23:26:39.797Z,2.10
2018-02-10T23:29:07.387Z,2.10
2018-02-10T23:31:35.674Z,2.10
2018-02-10T23:34:03.506Z,2.10
2018-02-10T23:36:31.200Z,2.20
2018-02-10T23:38:58.817Z,2.20
2018-02-10T23:41:26.635Z,2.20
2018-02-10T23:43:54.173Z,2.20
2018-02-10T23:46:21.754Z,2.20
2018-02-10T23:48:49.321Z,2.10
2018-02-10T23:51:16.922Z,2.10
2018-02-10T23:53:44.467Z,2.10
2018-02-10T23:56:12.075Z,2.10
2018-02-10T23:58:39.668Z,2.10
